»·PEaware :: N50212 KBOI-KMSO

N50212 :: KBOI-KMSO

FLIGHT INFORMATION

Flight Status: Arrived
Operator: Privately registered:
United States
More flights under this callsign
Pilot: Brad H. (25123)
Aircraft: BEECH AIRCRAFT BARON
(BE58)
More flights by this aircraft type
Origin: KBOI Boise Air Terminal/Gowen
United States
Destination: KMSO Missoula Intl
United States
More flights between these airports :: More routes between these airports
Route: +BOI3 BOI VALYY ODYSY
File this flight plan on PilotEdge
Remarks:
Altitude:
(Current/Filed)
15,000ft
Speed:
(Current/Filed)
170kts
Departed: 09-Apr-20 08:33 AM
Arrived: 09-Apr-20 09:56 AM
Distance/Time
Traveled:
221nm/1:23
Distance/Time
To Go:
Arrived

Flight Plot

Page will automatically refresh every two minutes.


Map Options




Map Legend


Flown Route
Filed Route
Departure Airport
Arrival Airport
Navaid (VOR, NDB)
Fix

Horizontal Profiles

Position Reports

Time Latitude Longitude Heading Altitude Ground
Speed
09-Apr-20 07:59 43.570226 -116.229020 272 2831ft 0kts
09-Apr-20 08:00 43.570226 -116.229020 272 2831ft 0kts
09-Apr-20 08:01 43.570226 -116.229020 272 2831ft 0kts
09-Apr-20 08:02 43.570226 -116.229020 272 2831ft 0kts
09-Apr-20 08:03 43.570226 -116.229020 272 2831ft 0kts
09-Apr-20 08:04 43.570226 -116.229020 272 2831ft 0kts
09-Apr-20 08:05 43.570226 -116.229020 272 2831ft 0kts
09-Apr-20 08:06 43.570226 -116.229020 272 2831ft 0kts
09-Apr-20 08:07 43.570226 -116.229020 272 2831ft 0kts
09-Apr-20 08:08 43.570226 -116.229020 272 2831ft 0kts
09-Apr-20 08:09 43.570226 -116.229020 272 2831ft 0kts
09-Apr-20 08:10 43.570226 -116.229020 272 2831ft 0kts
09-Apr-20 08:11 43.570226 -116.229020 272 2831ft 0kts
09-Apr-20 08:12 43.570226 -116.229020 272 2831ft 0kts
09-Apr-20 08:14 43.570226 -116.229020 272 2831ft 0kts
09-Apr-20 08:15 43.570226 -116.229020 272 2831ft 0kts
09-Apr-20 08:16 43.570226 -116.229020 272 2831ft 0kts
09-Apr-20 08:17 43.570226 -116.229020 272 2831ft 0kts
09-Apr-20 08:18 43.570226 -116.229020 272 2831ft 0kts
09-Apr-20 08:19 43.570226 -116.229020 272 2831ft 0kts
09-Apr-20 08:20 43.570226 -116.229020 272 2831ft 0kts
09-Apr-20 08:21 43.570226 -116.229020 272 2831ft 0kts
09-Apr-20 08:22 43.570226 -116.229020 272 2831ft 0kts
09-Apr-20 08:23 43.570226 -116.229020 272 2831ft 0kts
09-Apr-20 08:24 43.570394 -116.230262 277 2828ft 0kts
09-Apr-20 08:25 43.570396 -116.230279 277 2828ft 0kts
09-Apr-20 08:26 43.570396 -116.230279 277 2828ft 0kts
09-Apr-20 08:27 43.570396 -116.230279 277 2828ft 0kts
09-Apr-20 08:28 43.570396 -116.230279 277 2828ft 0kts
09-Apr-20 08:29 43.570396 -116.230279 277 2828ft 0kts
09-Apr-20 08:29 43.570396 -116.230279 277 2828ft 0kts
09-Apr-20 08:31 43.570333 -116.233759 291 2822ft 16kts
09-Apr-20 08:32 43.570975 -116.236256 223 2819ft 0kts
09-Apr-20 08:32 43.569475 -116.234748 115 2825ft 54kts
09-Apr-20 08:34 43.552845 -116.191476 115 3767ft 127kts
09-Apr-20 08:34 43.562308 -116.159410 14 4829ft 128kts
09-Apr-20 08:35 43.594176 -116.176970 344 5987ft 128kts
09-Apr-20 08:36 43.627874 -116.180753 7 7154ft 119kts
09-Apr-20 08:37 43.662426 -116.175590 7 8398ft 127kts
09-Apr-20 08:38 43.698057 -116.172573 8 9580ft 129kts
09-Apr-20 08:39 43.734449 -116.167335 7 10601ft 134kts
09-Apr-20 08:40 43.771938 -116.162285 8 11504ft 136kts
09-Apr-20 08:41 43.809133 -116.156900 8 12353ft 132kts
09-Apr-20 08:42 43.845213 -116.151686 8 13168ft 126kts
09-Apr-20 08:43 43.881405 -116.147178 8 13756ft 133kts
09-Apr-20 08:44 43.918272 -116.141599 7 14314ft 137kts
09-Apr-20 08:45 43.956746 -116.137030 8 14811ft 139kts
09-Apr-20 08:46 43.997819 -116.130393 9 14989ft 157kts
09-Apr-20 08:47 44.043912 -116.122941 8 14985ft 173kts
09-Apr-20 08:48 44.092521 -116.113619 10 14982ft 179kts
09-Apr-20 08:49 44.141933 -116.102077 13 14981ft 181kts
09-Apr-20 08:50 44.191135 -116.085936 14 14989ft 182kts
09-Apr-20 08:51 44.241042 -116.075220 4 15005ft 183kts
09-Apr-20 08:52 44.291552 -116.069343 7 15022ft 183kts
09-Apr-20 08:53 44.342368 -116.062754 7 15034ft 183kts
09-Apr-20 08:54 44.390717 -116.045996 30 15035ft 181kts
09-Apr-20 08:55 44.435158 -116.012521 28 15034ft 182kts
09-Apr-20 08:56 44.479983 -115.979498 28 15034ft 182kts
09-Apr-20 08:57 44.524514 -115.946632 28 15033ft 182kts
09-Apr-20 08:58 44.569252 -115.913555 28 15036ft 182kts
09-Apr-20 08:59 44.613878 -115.880482 28 15038ft 183kts
09-Apr-20 09:00 44.658880 -115.847091 28 15037ft 183kts
09-Apr-20 09:01 44.704006 -115.813554 28 15037ft 184kts
09-Apr-20 09:02 44.749169 -115.779925 28 15037ft 184kts
09-Apr-20 09:03 44.794361 -115.746219 28 15037ft 184kts
09-Apr-20 09:04 44.838517 -115.713224 28 15037ft 184kts
09-Apr-20 09:05 44.883336 -115.679677 28 15036ft 184kts
09-Apr-20 09:06 44.928696 -115.645660 28 15036ft 185kts
09-Apr-20 09:07 44.973976 -115.611607 28 15036ft 184kts
09-Apr-20 09:08 45.019147 -115.577154 27 15036ft 184kts
09-Apr-20 09:09 45.064278 -115.542626 26 15035ft 184kts
09-Apr-20 09:10 45.109229 -115.507780 25 15035ft 185kts
09-Apr-20 09:11 45.154627 -115.473613 25 15035ft 186kts
09-Apr-20 09:12 45.200651 -115.438729 25 15035ft 187kts
09-Apr-20 09:13 45.245172 -115.404915 25 15048ft 186kts
09-Apr-20 09:14 45.290818 -115.370183 25 15074ft 186kts
09-Apr-20 09:15 45.336142 -115.335626 25 15115ft 185kts
09-Apr-20 09:16 45.381460 -115.301019 25 15145ft 185kts
09-Apr-20 09:17 45.426996 -115.266183 25 15173ft 185kts
09-Apr-20 09:18 45.472503 -115.231311 25 15179ft 186kts
09-Apr-20 09:19 45.518174 -115.196246 25 15178ft 187kts
09-Apr-20 09:20 45.563600 -115.161194 25 15182ft 188kts
09-Apr-20 09:21 45.609764 -115.125504 24 15182ft 189kts
09-Apr-20 09:22 45.656207 -115.089540 24 15182ft 191kts
09-Apr-20 09:23 45.702971 -115.053281 24 15182ft 192kts
09-Apr-20 09:24 45.750164 -115.016636 24 15182ft 193kts
09-Apr-20 09:25 45.797695 -114.979672 24 15182ft 195kts
09-Apr-20 09:26 45.846043 -114.942087 24 15070ft 200kts
09-Apr-20 09:27 45.894484 -114.904292 24 15059ft 196kts
09-Apr-20 09:28 45.941554 -114.867470 24 15049ft 192kts
09-Apr-20 09:29 45.988008 -114.831089 24 15042ft 190kts
09-Apr-20 09:30 46.034500 -114.794620 24 15034ft 190kts
09-Apr-20 09:31 46.080784 -114.758248 24 15025ft 189kts
09-Apr-20 09:32 46.127325 -114.721636 24 15018ft 193kts
09-Apr-20 09:33 46.174707 -114.684282 24 15016ft 195kts
09-Apr-20 09:34 46.222214 -114.646737 24 15016ft 195kts
09-Apr-20 09:35 46.269630 -114.609187 25 15015ft 196kts
09-Apr-20 09:36 46.317561 -114.571148 25 15015ft 196kts
09-Apr-20 09:37 46.365305 -114.533183 25 15015ft 196kts
09-Apr-20 09:38 46.413106 -114.495093 24 15015ft 196kts
09-Apr-20 09:39 46.460730 -114.457072 25 15015ft 196kts
09-Apr-20 09:40 46.508434 -114.418906 25 15015ft 196kts
09-Apr-20 09:41 46.557295 -114.384255 5 14600ft 200kts
09-Apr-20 09:42 46.613638 -114.375692 2 13909ft 204kts
09-Apr-20 09:43 46.670143 -114.367799 2 13219ft 206kts
09-Apr-20 09:44 46.727264 -114.360196 2 12527ft 207kts
09-Apr-20 09:45 46.784213 -114.352964 2 11818ft 195kts
09-Apr-20 09:46 46.836195 -114.346333 2 11111ft 189kts
09-Apr-20 09:47 46.888186 -114.339843 2 10414ft 187kts
09-Apr-20 09:48 46.938730 -114.332743 14 9862ft 174kts
09-Apr-20 09:49 46.971472 -114.309911 34 8546ft 97kts
09-Apr-20 09:50 46.983622 -114.270881 73 6557ft 121kts
09-Apr-20 09:51 46.983868 -114.218902 98 5086ft 132kts
09-Apr-20 09:52 46.963997 -114.176336 129 4518ft 132kts
09-Apr-20 09:53 46.940795 -114.134495 131 3714ft 132kts
09-Apr-20 09:54 46.920677 -114.099405 132 3186ft 57kts
09-Apr-20 09:55 46.918115 -114.093829 38 3194ft 0kts
09-Apr-20 09:56 46.918468 -114.089286 38 3197ft 18kts
09-Apr-20 09:57 46.919871 -114.084884 321 3201ft 0kts

Navigation Log

Ident Type
Flight plan parsing failed, navigation log unavailable